Archival Weather

Republic

Farmingdale, New York (KFRG)

Report from: Monday, February 19, 2024 10:53 PM EST
Current time: Monday, June 24, 2024 6:27 AM EDT

Current weather – Weather history – Daily summaries
Weather forecast

Temperature-1.1°C (30.0°F)
Wind chill-4.4°C (24.1°F)
Dew point-11.7°C (10.9°F)
Winds 5 kts (2.6 m/s, 5.8 mph) North-Northeast (20°)
Visibility10 mi. (16.1 km)
Clouds Sky clear
Altimeter30.34 in.Hg (1027 mB)
Relative humidity44 %
Density altitude-2,409 ft. (-734 m)
Sea-level pressure102.7 kPa (1027 mB, 30.34 in.Hg)
Remarks Fully automated report
Automated weather observing station without precipitation discriminator
Freezing rain sensor not operating
Flight conditions Visual Meteorological Conditions
Raw dataKFRG 200353Z AUTO 02005KT 10SM CLR M01/M12 A3034 RMK AO1 SLP274 T10111117 FZRANO
An error has occurred. This application may no longer respond until reloaded. Reload 🗙